Terminal Aerodrome Forecast
Issued by NWS Portland, OR

Home | Current Version | Previous Version | Text Only | Print | Product List | Glossary On
Versions: 1 2 3 4 5 6 7 8 9 10 11 12 13 14 15 16 17 18 19 20 21 22
000
FTUS46 KPQR 251028 AAB
TAFHIO
TAF AMD
KHIO 251028Z 2510/2606 30003KT 3/4SM BR BKN002
     FM251600 10007KT P6SM SCT040 BKN080
     FM251900 14012G20KT P6SM -RA OVC050
     FM260000 19018G30KT 5SM -RA BR SCT025 OVC050
     FM260300 21013G22KT P6SM -SHRA SCT025 OVC050=

USA.gov is the U.S. government's official web portal to all federal, state and local government web resources and services.